This is the latest recevied weather packets stored in our database for station/object EA7AVH-10. If no packets are shown the sender has not sent any weather packets the latest 10 day(s).
| Time | Temp. | Humidity | Pressure | Rain* | Wind** | Luminosity | Snow |
|---|---|---|---|---|---|---|---|
| 1777718849 | 20.56° C | 58% | 927.1 hPa | - | - | - | - |
| 1777717949 | 21.11° C | 57% | 927.2 hPa | - | - | - | - |
| 1777717048 | 20.56° C | 61% | 927.4 hPa | - | - | - | - |
| 1777716147 | 20° C | 62% | 927.4 hPa | - | - | - | - |
| 1777715246 | 18.89° C | 64% | 927.4 hPa | - | - | - | - |
| 1777714345 | 18.33° C | 67% | 927.2 hPa | - | - | - | - |
| 1777713445 | 17.78° C | 69% | 927.6 hPa | - | - | - | - |
| 1777712544 | 17.22° C | 71% | 927.4 hPa | - | - | - | - |
| 1777711643 | 17.22° C | 73% | 927.4 hPa | - | - | - | - |
| 1777710742 | 16.67° C | 76% | 927.4 hPa | - | - | - | - |
| 1777709841 | 16.11° C | 80% | 927.5 hPa | - | - | - | - |
| 1777708941 | 15.56° C | 82% | 927.6 hPa | - | - | - | - |
| 1777708040 | 15.56° C | 83% | 927.5 hPa | - | - | - | - |
| 1777707139 | 15.56° C | 84% | 927.5 hPa | - | - | - | - |
| 1777706238 | 15° C | 85% | 927.6 hPa | - | - | - | - |
| 1777705337 | 15° C | 86% | 927.4 hPa | - | - | - | - |
| 1777704437 | 15° C | 87% | 927.3 hPa | - | - | - | - |
| 1777703536 | 15° C | 87% | 927.4 hPa | - | - | - | - |
| 1777702635 | 14.44° C | 88% | 927.4 hPa | - | - | - | - |
| 1777701734 | 14.44° C | 88% | 927.3 hPa | - | - | - | - |
| 1777700833 | 14.44° C | 88% | 927.2 hPa | - | - | - | - |
| 1777699933 | 14.44° C | 88% | 927.3 hPa | - | - | - | - |
| 1777699032 | 14.44° C | 87% | 927.3 hPa | - | - | - | - |
| 1777698150 | 14.44° C | 88% | 927.2 hPa | - | - | - | - |
| 1777697250 | 14.44° C | 88% | 927.2 hPa | - | - | - | - |
* Rain since midnight (hover to see other rain measurements)
** Current wind speed in m/s (hover to see current wind gust speed)